Time;durP1;ratioP1;P1;durP2;ratioP2;P2;SDS_P1;SDS_P2;PMS_P1;PMS_P2;Temp;Humidity;BMP_temperature;BMP_pressure;BME280_temperature;BME280_humidity;BME280_pressure;Samples;Min_cycle;Max_cycle;Signal;HPM_P1;HPM_P2
2022/06/08 00:00:54;;;;;;;3.20;2.85;;;;;;;;;;4972671;28;20045;-65
2022/06/08 00:03:22;;;;;;;3.85;3.50;;;;;;;;;;4969773;28;20050;-66
2022/06/08 00:05:47;;;;;;;3.97;2.65;;;;;;;;;;4965981;28;20105;-67
2022/06/08 00:08:13;;;;;;;2.58;2.38;;;;;;;;;;4971441;28;20026;-70
2022/06/08 00:10:38;;;;;;;4.60;2.75;;;;;;;;;;4961525;28;20082;-72
2022/06/08 00:13:04;;;;;;;2.85;2.65;;;;;;;;;;4964336;28;20038;-73
2022/06/08 00:15:30;;;;;;;2.80;2.50;;;;;;;;;;4968934;28;20029;-67
2022/06/08 00:17:56;;;;;;;2.70;2.20;;;;;;;;;;4971096;28;20022;-68
2022/06/08 00:20:22;;;;;;;4.05;2.85;;;;;;;;;;4968944;28;20118;-67
2022/06/08 00:22:47;;;;;;;2.85;2.65;;;;;;;;;;4969683;28;20028;-71
2022/06/08 00:25:13;;;;;;;3.22;2.92;;;;;;;;;;4964810;28;20022;-74
2022/06/08 00:27:39;;;;;;;3.33;2.85;;;;;;;;;;4961146;28;20052;-71
2022/06/08 00:30:05;;;;;;;4.47;2.78;;;;;;;;;;4967005;28;20471;-68
2022/06/08 00:32:30;;;;;;;3.92;2.40;;;;;;;;;;4963831;28;20026;-68
2022/06/08 00:34:56;;;;;;;3.30;2.85;;;;;;;;;;4973300;28;20033;-72
2022/06/08 00:37:23;;;;;;;3.85;2.80;;;;;;;;;;4970260;28;20138;-68
2022/06/08 00:39:48;;;;;;;2.78;2.50;;;;;;;;;;4973463;28;20121;-73
2022/06/08 00:42:15;;;;;;;2.97;2.78;;;;;;;;;;4961602;28;20074;-68
2022/06/08 00:44:42;;;;;;;4.07;2.70;;;;;;;;;;4971113;28;20042;-68
2022/06/08 00:47:09;;;;;;;2.88;2.67;;;;;;;;;;4972235;28;20434;-69
2022/06/08 00:49:38;;;;;;;3.92;2.63;;;;;;;;;;4962966;28;20034;-68
2022/06/08 00:52:04;;;;;;;3.90;2.67;;;;;;;;;;4963309;28;20015;-68
2022/06/08 00:54:31;;;;;;;3.92;2.60;;;;;;;;;;4966358;28;20038;-67
2022/06/08 00:56:59;;;;;;;4.38;2.80;;;;;;;;;;4972671;28;20466;-68
2022/06/08 00:59:25;;;;;;;3.20;2.85;;;;;;;;;;4971837;28;20022;-70
2022/06/08 01:01:50;;;;;;;3.10;2.55;;;;;;;;;;4960353;28;20077;-68
2022/06/08 01:04:17;;;;;;;2.63;2.42;;;;;;;;;;4970503;28;20117;-72
2022/06/08 01:06:44;;;;;;;3.97;2.83;;;;;;;;;;4972416;28;20435;-67
2022/06/08 01:09:14;;;;;;;4.90;2.67;;;;;;;;;;4968791;28;20018;-68
2022/06/08 01:11:44;;;;;;;4.78;2.63;;;;;;;;;;4973592;28;20058;-72
2022/06/08 01:14:09;;;;;;;;;;;;;;;;;;4964159;28;20043;-67
2022/06/08 01:16:34;;;;;;;4.33;2.53;;;;;;;;;;4963377;28;19914;-73
2022/06/08 01:19:00;;;;;;;5.03;3.10;;;;;;;;;;4969539;28;20334;-68
2022/06/08 01:21:27;;;;;;;6.28;2.70;;;;;;;;;;4972904;28;20034;-68
2022/06/08 01:24:01;;;;;;;4.75;2.65;;;;;;;;;;4973421;28;20018;-67
2022/06/08 01:26:32;;;;;;;3.03;2.72;;;;;;;;;;4972088;28;20042;-68
2022/06/08 01:29:09;;;;;;;2.72;2.53;;;;;;;;;;4972577;28;20026;-73
2022/06/08 01:31:44;;;;;;;3.33;3.03;;;;;;;;;;4970478;28;20023;-68
2022/06/08 01:34:16;;;;;;;2.63;2.42;;;;;;;;;;4970556;28;20054;-69
2022/06/08 01:36:42;;;;;;;2.90;2.60;;;;;;;;;;4965490;28;20748;-70
2022/06/08 01:39:16;;;;;;;3.08;2.78;;;;;;;;;;4971034;28;20019;-68
2022/06/08 01:41:41;;;;;;;4.03;2.70;;;;;;;;;;4972627;28;20039;-69
2022/06/08 01:44:10;;;;;;;3.20;2.70;;;;;;;;;;4973047;28;20036;-69
2022/06/08 01:46:47;;;;;;;4.47;3.22;;;;;;;;;;4966602;28;20034;-69
2022/06/08 01:49:31;;;;;;;3.08;2.78;;;;;;;;;;4968476;28;20026;-68
2022/06/08 01:52:18;;;;;;;2.65;2.45;;;;;;;;;;4961652;28;20031;-68
2022/06/08 01:54:49;;;;;;;2.80;2.60;;;;;;;;;;4970021;28;20015;-72
2022/06/08 01:57:36;;;;;;;3.15;2.65;;;;;;;;;;4962828;28;20043;-70
2022/06/08 02:00:09;;;;;;;4.28;3.13;;;;;;;;;;4970812;28;20033;-68
2022/06/08 02:02:44;;;;;;;6.05;3.47;;;;;;;;;;4969591;28;20034;-71
2022/06/08 02:05:12;;;;;;;5.78;3.13;;;;;;;;;;4970809;28;20037;-72
2022/06/08 02:07:44;;;;;;;3.00;2.80;;;;;;;;;;4975463;28;20030;-70
2022/06/08 02:10:26;;;;;;;5.18;2.72;;;;;;;;;;4958755;28;20026;-66
2022/06/08 02:12:54;;;;;;;3.03;2.72;;;;;;;;;;4971229;28;20058;-67
2022/06/08 02:15:28;;;;;;;2.83;2.60;;;;;;;;;;4971014;28;20037;-70
2022/06/08 02:17:55;;;;;;;2.90;2.60;;;;;;;;;;4963190;28;20059;-66
2022/06/08 02:20:41;;;;;;;3.40;3.10;;;;;;;;;;4957743;28;20042;-70
2022/06/08 02:23:15;;;;;;;3.35;3.05;;;;;;;;;;4941245;28;20361;-72
2022/06/08 02:25:46;;;;;;;3.60;3.30;;;;;;;;;;4955359;28;20035;-71
2022/06/08 02:28:14;;;;;;;5.47;3.80;;;;;;;;;;4964036;28;20501;-74
2022/06/08 02:30:46;;;;;;;3.65;3.35;;;;;;;;;;4972045;28;20121;-67
2022/06/08 02:36:22;;;;;;;3.35;2.70;;;;;;;;;;4969723;28;21567;-74
2022/06/08 02:38:53;;;;;;;3.15;2.88;;;;;;;;;;4958566;28;20363;-67
2022/06/08 02:41:20;;;;;;;3.45;3.03;;;;;;;;;;4965687;28;20030;-67
2022/06/08 02:43:48;;;;;;;2.92;2.72;;;;;;;;;;4971913;28;20065;-69
2022/06/08 02:46:17;;;;;;;2.60;2.40;;;;;;;;;;4971000;28;20038;-68
2022/06/08 02:48:42;;;;;;;4.75;3.10;;;;;;;;;;4967255;28;20058;-67
2022/06/08 02:51:07;;;;;;;2.50;2.30;;;;;;;;;;4970642;28;20069;-76
2022/06/08 02:53:33;;;;;;;2.80;2.60;;;;;;;;;;4971903;28;20030;-68
2022/06/08 02:56:05;;;;;;;3.65;2.85;;;;;;;;;;4972653;28;20051;-68
2022/06/08 02:58:35;;;;;;;3.65;2.80;;;;;;;;;;4969023;28;20090;-69
2022/06/08 03:01:00;;;;;;;;;;;;;;;;;;4965067;28;20023;-68
2022/06/08 03:03:31;;;;;;;4.65;2.40;;;;;;;;;;4959359;28;19946;-67
2022/06/08 03:06:16;;;;;;;3.63;2.45;;;;;;;;;;4968360;28;20542;-68
2022/06/08 03:09:01;;;;;;;3.80;2.75;;;;;;;;;;4969620;28;20026;-69
2022/06/08 03:11:35;;;;;;;2.80;2.60;;;;;;;;;;4964895;28;20054;-68
2022/06/08 03:14:03;;;;;;;4.05;3.00;;;;;;;;;;4968057;28;20023;-66
2022/06/08 03:16:30;;;;;;;2.55;2.35;;;;;;;;;;4971223;28;20596;-68
2022/06/08 03:18:55;;;;;;;3.38;3.08;;;;;;;;;;4968783;28;20073;-68
2022/06/08 03:21:21;;;;;;;3.75;2.65;;;;;;;;;;4967490;28;20062;-70
2022/06/08 03:23:48;;;;;;;4.38;2.88;;;;;;;;;;4968280;28;20048;-68
2022/06/08 03:26:14;;;;;;;2.85;2.53;;;;;;;;;;4971963;28;20098;-71
2022/06/08 03:28:39;;;;;;;2.78;2.58;;;;;;;;;;4969333;28;20443;-66
2022/06/08 03:31:04;;;;;;;2.83;2.47;;;;;;;;;;4970681;28;20137;-67
2022/06/08 03:33:30;;;;;;;2.72;2.33;;;;;;;;;;4968944;28;20113;-71
2022/06/08 03:35:55;;;;;;;3.03;2.72;;;;;;;;;;4966706;28;20113;-70
2022/06/08 03:38:21;;;;;;;3.17;2.80;;;;;;;;;;4954184;28;20058;-66
2022/06/08 03:40:46;;;;;;;3.13;2.47;;;;;;;;;;4972457;28;20033;-68
2022/06/08 03:43:11;;;;;;;2.90;2.60;;;;;;;;;;4970222;28;20038;-72
2022/06/08 03:45:40;;;;;;;5.90;2.80;;;;;;;;;;4969081;28;20078;-70
2022/06/08 03:48:06;;;;;;;3.03;2.72;;;;;;;;;;4968014;28;20033;-66
2022/06/08 03:50:31;;;;;;;3.40;3.08;;;;;;;;;;4969454;28;20354;-74
2022/06/08 03:52:58;;;;;;;4.15;3.00;;;;;;;;;;4967076;28;20095;-71
2022/06/08 03:55:25;;;;;;;3.50;2.72;;;;;;;;;;4967032;28;20035;-72
2022/06/08 03:57:51;;;;;;;4.93;3.20;;;;;;;;;;4971727;28;20051;-70
2022/06/08 04:00:18;;;;;;;3.55;3.25;;;;;;;;;;4970031;28;20054;-69
2022/06/08 04:02:45;;;;;;;3.80;3.42;;;;;;;;;;4972611;28;20066;-69
2022/06/08 04:05:10;;;;;;;2.90;2.60;;;;;;;;;;4960609;28;20030;-67
2022/06/08 04:07:36;;;;;;;5.30;3.47;;;;;;;;;;4965786;28;20094;-67
2022/06/08 04:10:01;;;;;;;3.47;3.10;;;;;;;;;;4976281;28;20414;-67
2022/06/08 04:12:27;;;;;;;4.72;3.05;;;;;;;;;;4968407;28;20022;-68
2022/06/08 04:14:52;;;;;;;3.75;3.42;;;;;;;;;;4967454;28;20030;-67
2022/06/08 04:17:18;;;;;;;3.55;3.25;;;;;;;;;;4962969;28;20027;-71
2022/06/08 04:19:44;;;;;;;3.72;3.15;;;;;;;;;;4962231;28;20050;-70
2022/06/08 04:22:10;;;;;;;3.20;2.92;;;;;;;;;;4962591;28;20039;-68
2022/06/08 04:24:35;;;;;;;7.40;3.17;;;;;;;;;;4969952;28;20030;-67
2022/06/08 04:27:01;;;;;;;3.63;2.97;;;;;;;;;;4970663;28;20034;-68
2022/06/08 04:29:26;;;;;;;4.90;3.13;;;;;;;;;;4972700;28;20082;-67
2022/06/08 04:31:51;;;;;;;2.65;2.45;;;;;;;;;;4973951;28;20507;-73
2022/06/08 04:34:17;;;;;;;3.17;2.97;;;;;;;;;;4973827;28;20106;-69
2022/06/08 04:36:42;;;;;;;3.72;2.67;;;;;;;;;;4971167;28;21083;-67
2022/06/08 04:39:09;;;;;;;4.22;3.08;;;;;;;;;;4972816;28;20036;-72
2022/06/08 04:41:35;;;;;;;4.72;3.47;;;;;;;;;;4955722;28;20027;-66
2022/06/08 04:44:00;;;;;;;3.78;2.75;;;;;;;;;;4968514;28;20348;-68
2022/06/08 04:46:26;;;;;;;5.05;3.13;;;;;;;;;;4973334;28;20044;-68
2022/06/08 04:48:51;;;;;;;3.78;3.47;;;;;;;;;;4969459;28;20184;-66
2022/06/08 04:51:17;;;;;;;3.10;2.80;;;;;;;;;;4971885;28;20429;-69
2022/06/08 04:53:43;;;;;;;3.50;3.20;;;;;;;;;;4965812;28;20026;-68
2022/06/08 04:56:08;;;;;;;3.83;3.47;;;;;;;;;;4960867;28;20046;-69
2022/06/08 04:58:34;;;;;;;4.75;2.95;;;;;;;;;;4967923;28;20037;-68
2022/06/08 05:00:59;;;;;;;3.72;3.03;;;;;;;;;;4968274;28;20030;-68
2022/06/08 05:03:25;;;;;;;3.53;3.22;;;;;;;;;;4970365;28;20037;-67
2022/06/08 05:05:50;;;;;;;3.75;3.45;;;;;;;;;;4968957;28;20035;-71
2022/06/08 05:08:18;;;;;;;6.47;3.28;;;;;;;;;;4968802;28;20334;-67
2022/06/08 05:10:44;;;;;;;3.03;2.50;;;;;;;;;;4970987;28;20081;-67
2022/06/08 05:13:11;;;;;;;5.90;3.03;;;;;;;;;;4973565;28;20030;-67
2022/06/08 05:15:37;;;;;;;4.53;2.90;;;;;;;;;;4975696;28;20030;-68
2022/06/08 05:18:03;;;;;;;3.50;3.00;;;;;;;;;;4971780;28;20023;-68
2022/06/08 05:20:29;;;;;;;3.00;2.70;;;;;;;;;;4972148;28;20022;-68
2022/06/08 05:22:54;;;;;;;3.38;2.90;;;;;;;;;;4972130;28;21215;-68
2022/06/08 05:25:27;;;;;;;3.22;2.92;;;;;;;;;;4960540;28;20057;-68
2022/06/08 05:27:53;;;;;;;3.20;2.90;;;;;;;;;;4968540;28;20019;-69
2022/06/08 05:30:18;;;;;;;4.00;2.85;;;;;;;;;;4972382;28;20045;-70
2022/06/08 05:32:44;;;;;;;3.83;2.80;;;;;;;;;;4968352;28;20048;-70
2022/06/08 05:35:10;;;;;;;4.35;3.00;;;;;;;;;;4969574;28;20053;-67
2022/06/08 05:37:35;;;;;;;5.72;3.55;;;;;;;;;;4969352;28;20054;-67
2022/06/08 05:40:01;;;;;;;3.45;3.15;;;;;;;;;;4960187;28;20023;-68
2022/06/08 05:42:26;;;;;;;3.67;3.00;;;;;;;;;;4971904;28;20026;-70
2022/06/08 05:44:52;;;;;;;3.75;3.30;;;;;;;;;;4972926;28;20026;-68
2022/06/08 05:47:17;;;;;;;4.35;3.67;;;;;;;;;;4969507;28;20373;-69
2022/06/08 05:49:45;;;;;;;4.10;3.70;;;;;;;;;;4969941;28;20415;-72
2022/06/08 05:52:11;;;;;;;5.32;4.00;;;;;;;;;;4968272;28;20030;-69
2022/06/08 05:54:36;;;;;;;4.55;4.15;;;;;;;;;;4971805;28;20672;-67
2022/06/08 05:57:02;;;;;;;3.40;3.10;;;;;;;;;;4971520;28;20058;-70
2022/06/08 05:59:27;;;;;;;3.22;2.88;;;;;;;;;;4968913;28;20435;-68
2022/06/08 06:01:52;;;;;;;3.90;3.53;;;;;;;;;;4966194;28;20018;-71
2022/06/08 06:04:18;;;;;;;4.25;3.28;;;;;;;;;;4953578;28;20050;-68
2022/06/08 06:06:46;;;;;;;5.85;2.88;;;;;;;;;;4951471;28;20485;-71
2022/06/08 06:09:12;;;;;;;4.82;2.90;;;;;;;;;;4954666;28;20022;-70
2022/06/08 06:11:38;;;;;;;3.65;2.80;;;;;;;;;;4954167;28;20034;-71
2022/06/08 06:14:03;;;;;;;2.80;2.58;;;;;;;;;;4952253;28;20044;-74
2022/06/08 06:16:29;;;;;;;2.65;2.45;;;;;;;;;;4953117;28;20058;-71
2022/06/08 06:18:55;;;;;;;2.60;2.40;;;;;;;;;;4953605;28;20035;-69
2022/06/08 06:21:25;;;;;;;2.60;2.40;;;;;;;;;;4952490;28;20037;-70
2022/06/08 06:23:50;;;;;;;3.90;2.95;;;;;;;;;;4950650;28;20940;-71
2022/06/08 06:26:16;;;;;;;2.97;2.65;;;;;;;;;;4953995;28;20046;-70
2022/06/08 06:28:42;;;;;;;2.67;2.42;;;;;;;;;;4953758;28;20185;-69
2022/06/08 06:31:09;;;;;;;3.17;2.97;;;;;;;;;;4952056;28;20069;-74
2022/06/08 06:33:34;;;;;;;3.78;2.85;;;;;;;;;;4956241;28;20090;-69
2022/06/08 06:36:00;;;;;;;3.50;2.70;;;;;;;;;;4957185;28;20074;-69
2022/06/08 06:38:26;;;;;;;3.22;2.47;;;;;;;;;;4969567;28;20094;-66
2022/06/08 06:40:51;;;;;;;2.65;2.45;;;;;;;;;;4970500;28;20969;-68
2022/06/08 06:43:17;;;;;;;2.47;2.28;;;;;;;;;;4968663;28;20038;-70
2022/06/08 06:45:43;;;;;;;4.35;3.65;;;;;;;;;;4973263;28;20014;-69
2022/06/08 06:48:08;;;;;;;3.00;2.70;;;;;;;;;;4966986;28;20414;-68
2022/06/08 06:50:33;;;;;;;4.28;2.75;;;;;;;;;;4970681;28;20069;-69
2022/06/08 06:53:01;;;;;;;2.70;2.50;;;;;;;;;;4968146;28;20038;-68
2022/06/08 06:55:28;;;;;;;4.00;2.58;;;;;;;;;;4970508;28;20471;-67
2022/06/08 06:57:59;;;;;;;3.28;2.45;;;;;;;;;;4970547;28;20692;-72
2022/06/08 07:00:26;;;;;;;2.20;2.00;;;;;;;;;;4960109;28;20451;-72
2022/06/08 07:02:51;;;;;;;2.50;2.13;;;;;;;;;;4964135;28;20027;-68
2022/06/08 07:05:19;;;;;;;2.30;2.13;;;;;;;;;;4951222;28;20050;-69
2022/06/08 07:07:44;;;;;;;2.58;2.38;;;;;;;;;;4951916;28;20080;-68
2022/06/08 07:10:09;;;;;;;2.42;2.22;;;;;;;;;;4949583;28;20031;-74
2022/06/08 07:12:35;;;;;;;2.20;2.10;;;;;;;;;;4950897;28;20026;-69
2022/06/08 07:15:00;;;;;;;2.60;2.40;;;;;;;;;;4962448;28;20154;-67
2022/06/08 07:17:25;;;;;;;2.65;2.45;;;;;;;;;;4967697;28;20038;-70
2022/06/08 07:19:51;;;;;;;2.45;2.25;;;;;;;;;;4968758;28;20027;-71
2022/06/08 07:22:17;;;;;;;1.98;1.88;;;;;;;;;;4967595;28;20121;-69
2022/06/08 07:24:43;;;;;;;2.05;1.95;;;;;;;;;;4964787;28;20031;-71
2022/06/08 07:27:08;;;;;;;2.45;2.25;;;;;;;;;;4989771;28;20034;-75
2022/06/08 07:29:34;;;;;;;1.90;1.80;;;;;;;;;;4968392;28;20041;-70
2022/06/08 07:31:59;;;;;;;2.53;2.17;;;;;;;;;;4966978;28;20023;-73
2022/06/08 07:34:25;;;;;;;2.08;1.98;;;;;;;;;;4968023;28;20109;-71
2022/06/08 07:36:50;;;;;;;2.88;2.00;;;;;;;;;;4967547;28;20463;-67
2022/06/08 07:39:16;;;;;;;2.63;2.03;;;;;;;;;;4959228;28;20130;-69
2022/06/08 07:41:43;;;;;;;1.73;1.60;;;;;;;;;;4968123;28;20109;-68
2022/06/08 07:44:08;;;;;;;3.80;1.70;;;;;;;;;;4968661;28;20110;-68
2022/06/08 07:46:33;;;;;;;1.60;1.50;;;;;;;;;;4956780;28;20213;-74
2022/06/08 07:51:42;;;;;;;1.70;1.60;;;;;;;;;;4971120;28;20038;-70
2022/06/08 07:54:08;;;;;;;1.63;1.52;;;;;;;;;;4970091;28;20026;-70
2022/06/08 07:56:34;;;;;;;1.50;1.33;;;;;;;;;;4967657;28;20066;-71
2022/06/08 07:58:59;;;;;;;1.50;1.40;;;;;;;;;;4967692;28;20033;-70
2022/06/08 08:01:25;;;;;;;1.75;1.20;;;;;;;;;;4954084;28;20022;-70
2022/06/08 08:03:50;;;;;;;1.50;1.40;;;;;;;;;;4955018;28;20057;-76
2022/06/08 08:06:16;;;;;;;4.30;1.60;;;;;;;;;;4954627;28;20054;-70
2022/06/08 08:08:41;;;;;;;2.05;1.27;;;;;;;;;;4953438;28;20109;-74
2022/06/08 08:11:07;;;;;;;2.10;1.30;;;;;;;;;;4956065;28;20027;-74
2022/06/08 08:13:32;;;;;;;1.65;1.55;;;;;;;;;;4959388;28;20088;-69
2022/06/08 08:15:58;;;;;;;1.75;1.65;;;;;;;;;;4961228;28;20023;-69
2022/06/08 08:18:23;;;;;;;1.60;1.50;;;;;;;;;;4956173;28;20026;-70
2022/06/08 08:20:48;;;;;;;1.20;1.10;;;;;;;;;;4957127;28;20084;-70
2022/06/08 08:23:14;;;;;;;1.83;1.70;;;;;;;;;;4956533;28;20438;-74
2022/06/08 08:25:39;;;;;;;1.42;1.30;;;;;;;;;;4958846;28;20490;-76
2022/06/08 08:28:05;;;;;;;3.25;1.35;;;;;;;;;;4961522;28;20552;-72
2022/06/08 08:30:31;;;;;;;2.13;1.77;;;;;;;;;;4961102;28;20038;-69
2022/06/08 08:32:56;;;;;;;1.50;1.40;;;;;;;;;;4959832;28;20035;-72
2022/06/08 08:35:23;;;;;;;1.60;1.50;;;;;;;;;;4958240;28;20026;-70
2022/06/08 08:37:48;;;;;;;1.63;1.50;;;;;;;;;;4955686;28;20057;-70
2022/06/08 08:40:23;;;;;;;1.73;1.63;;;;;;;;;;4959241;28;20436;-72
2022/06/08 08:42:48;;;;;;;2.40;1.27;;;;;;;;;;4957066;28;20460;-70
2022/06/08 08:45:15;;;;;;;1.70;1.60;;;;;;;;;;4945597;28;20018;-68
2022/06/08 08:47:47;;;;;;;1.33;1.23;;;;;;;;;;4956307;28;20147;-76
2022/06/08 08:50:16;;;;;;;1.20;1.20;;;;;;;;;;4953851;28;20148;-74
2022/06/08 08:52:53;;;;;;;1.77;1.48;;;;;;;;;;4956483;28;20139;-70
2022/06/08 08:55:37;;;;;;;1.38;1.27;;;;;;;;;;4956494;28;20130;-75
2022/06/08 08:58:11;;;;;;;1.35;1.25;;;;;;;;;;4955257;28;20110;-76
2022/06/08 09:00:39;;;;;;;1.25;1.17;;;;;;;;;;4957759;28;20026;-71
2022/06/08 09:03:19;;;;;;;1.50;1.20;;;;;;;;;;4964115;28;20033;-77
2022/06/08 09:05:46;;;;;;;1.20;1.20;;;;;;;;;;4963917;28;20062;-70
2022/06/08 09:08:12;;;;;;;1.00;1.00;;;;;;;;;;4963681;28;20494;-76
2022/06/08 09:10:38;;;;;;;2.40;1.50;;;;;;;;;;4960744;28;20023;-73
2022/06/08 09:13:04;;;;;;;1.63;1.50;;;;;;;;;;4955035;28;20037;-69
2022/06/08 09:15:41;;;;;;;1.40;1.30;;;;;;;;;;4963555;28;20030;-69
2022/06/08 09:18:16;;;;;;;1.40;1.30;;;;;;;;;;4969007;28;20353;-75
2022/06/08 09:20:42;;;;;;;1.17;1.17;;;;;;;;;;4965894;28;20045;-72
2022/06/08 09:23:22;;;;;;;1.20;1.10;;;;;;;;;;4955254;28;20375;-68
2022/06/08 09:26:00;;;;;;;1.23;1.23;;;;;;;;;;4958731;28;20022;-76
2022/06/08 09:28:27;;;;;;;1.80;1.42;;;;;;;;;;4957622;28;20112;-71
2022/06/08 09:30:53;;;;;;;1.85;1.70;;;;;;;;;;4956234;28;20031;-71
2022/06/08 09:33:26;;;;;;;1.02;0.95;;;;;;;;;;4944999;28;20045;-69
2022/06/08 09:35:55;;;;;;;1.33;1.23;;;;;;;;;;4957285;28;20029;-71
2022/06/08 09:38:22;;;;;;;1.63;1.52;;;;;;;;;;4969081;28;20038;-71
2022/06/08 09:40:52;;;;;;;1.85;1.25;;;;;;;;;;4970167;28;20370;-73
2022/06/08 09:43:18;;;;;;;1.85;1.65;;;;;;;;;;4967912;28;20034;-74
2022/06/08 09:45:49;;;;;;;1.45;1.17;;;;;;;;;;4967870;28;20042;-74
2022/06/08 09:51:25;;;;;;;1.40;1.27;;;;;;;;;;4973377;28;20101;-69
2022/06/08 09:54:09;;;;;;;1.27;1.20;;;;;;;;;;4967253;28;20066;-69
2022/06/08 09:56:42;;;;;;;1.33;1.23;;;;;;;;;;4968616;28;20054;-72
2022/06/08 09:59:13;;;;;;;1.40;1.30;;;;;;;;;;4968676;28;20213;-70
2022/06/08 10:01:51;;;;;;;2.95;1.40;;;;;;;;;;4972291;28;20449;-71
2022/06/08 10:04:20;;;;;;;1.40;1.20;;;;;;;;;;4968866;28;20022;-73
2022/06/08 10:06:55;;;;;;;2.45;1.10;;;;;;;;;;4971849;28;20034;-71
2022/06/08 10:09:24;;;;;;;1.35;1.20;;;;;;;;;;4971747;28;20887;-71
2022/06/08 10:11:50;;;;;;;;;;;;;;;;;;4972324;28;20058;-70
2022/06/08 10:14:25;;;;;;;1.77;1.10;;;;;;;;;;4972101;28;19976;-70
2022/06/08 10:16:56;;;;;;;2.22;1.40;;;;;;;;;;4970805;28;20029;-70
2022/06/08 10:19:43;;;;;;;3.63;1.60;;;;;;;;;;4971977;28;20065;-71
2022/06/08 10:22:09;;;;;;;1.25;1.15;;;;;;;;;;4971617;28;20548;-70
2022/06/08 10:24:45;;;;;;;1.30;1.20;;;;;;;;;;4970795;28;20035;-68
2022/06/08 10:27:24;;;;;;;1.65;1.30;;;;;;;;;;4970365;28;20103;-69
2022/06/08 10:30:03;;;;;;;3.95;1.38;;;;;;;;;;4973827;28;20041;-70
2022/06/08 10:32:51;;;;;;;1.65;1.42;;;;;;;;;;4970006;28;20373;-76
2022/06/08 10:35:21;;;;;;;1.33;1.25;;;;;;;;;;4965535;28;20177;-72
2022/06/08 10:37:47;;;;;;;1.15;1.13;;;;;;;;;;4962634;28;20041;-71
2022/06/08 10:40:17;;;;;;;1.30;1.20;;;;;;;;;;4968285;28;20041;-76
2022/06/08 10:42:43;;;;;;;2.83;1.30;;;;;;;;;;4965384;28;20026;-71
2022/06/08 10:45:21;;;;;;;1.60;1.50;;;;;;;;;;4970501;28;20041;-70
2022/06/08 10:47:57;;;;;;;2.92;1.40;;;;;;;;;;4964258;28;20030;-73
2022/06/08 10:50:28;;;;;;;1.90;1.40;;;;;;;;;;4970197;28;20026;-75
2022/06/08 10:54:52;;;;;;;2.60;1.58;;;;;;;;;;4959245;28;20034;-72
2022/06/08 10:55:40;;;;;;;1.38;1.27;;;;;;;;;;4972654;28;20570;-69
2022/06/08 10:58:13;;;;;;;1.73;1.48;;;;;;;;;;4969854;28;20088;-71
2022/06/08 11:01:08;;;;;;;1.60;1.50;;;;;;;;;;4969004;28;20077;-69
2022/06/08 11:03:54;;;;;;;1.70;1.60;;;;;;;;;;4954729;28;20050;-72
2022/06/08 11:06:38;;;;;;;1.20;1.10;;;;;;;;;;4969625;28;20129;-71
2022/06/08 11:09:03;;;;;;;3.83;1.65;;;;;;;;;;4970406;28;20032;-74
2022/06/08 11:11:40;;;;;;;1.13;1.13;;;;;;;;;;4970211;28;20027;-70
2022/06/08 11:14:24;;;;;;;1.27;1.23;;;;;;;;;;4967068;28;20030;-73
2022/06/08 11:16:49;;;;;;;1.45;1.35;;;;;;;;;;4972611;28;20149;-72
2022/06/08 11:19:17;;;;;;;3.03;1.48;;;;;;;;;;4972846;28;20113;-69
2022/06/08 11:21:45;;;;;;;1.50;1.40;;;;;;;;;;4967376;28;20035;-70
2022/06/08 11:24:28;;;;;;;1.30;1.20;;;;;;;;;;4967540;28;20482;-73
2022/06/08 11:27:12;;;;;;;2.97;1.70;;;;;;;;;;4967968;28;20125;-69
2022/06/08 11:29:42;;;;;;;2.05;1.70;;;;;;;;;;4969002;28;20109;-69
2022/06/08 11:32:24;;;;;;;1.92;1.75;;;;;;;;;;4968786;28;20054;-69
2022/06/08 11:34:52;;;;;;;2.22;2.00;;;;;;;;;;4967473;28;20410;-73
2022/06/08 11:37:17;;;;;;;1.90;1.50;;;;;;;;;;4975794;28;20030;-70
2022/06/08 11:39:43;;;;;;;1.50;1.40;;;;;;;;;;4970587;28;20029;-69
2022/06/08 11:42:14;;;;;;;1.63;1.52;;;;;;;;;;4974129;28;20110;-76
2022/06/08 11:44:48;;;;;;;1.50;1.40;;;;;;;;;;4969414;28;20469;-72
2022/06/08 11:47:16;;;;;;;1.50;1.40;;;;;;;;;;4975108;28;20121;-70
2022/06/08 11:49:43;;;;;;;1.70;1.60;;;;;;;;;;4968307;28;20357;-72
2022/06/08 11:52:28;;;;;;;1.40;1.30;;;;;;;;;;4970664;28;20084;-70
2022/06/08 11:55:05;;;;;;;3.50;1.65;;;;;;;;;;4969899;28;20041;-71
2022/06/08 11:57:31;;;;;;;1.48;1.35;;;;;;;;;;4970928;28;20062;-70
2022/06/08 11:59:57;;;;;;;1.52;1.42;;;;;;;;;;4967193;28;20045;-74
2022/06/08 12:02:24;;;;;;;1.50;1.40;;;;;;;;;;4968145;28;20066;-71
2022/06/08 12:04:53;;;;;;;2.80;1.70;;;;;;;;;;4968307;28;20026;-70
2022/06/08 12:07:45;;;;;;;2.55;1.73;;;;;;;;;;4970551;28;20035;-73
2022/06/08 12:10:16;;;;;;;2.50;1.60;;;;;;;;;;4942846;28;20034;-74
2022/06/08 12:12:43;;;;;;;4.20;2.13;;;;;;;;;;4971333;28;20022;-74
2022/06/08 12:15:31;;;;;;;1.60;1.50;;;;;;;;;;4966740;28;20125;-74
2022/06/08 12:18:07;;;;;;;2.58;1.90;;;;;;;;;;4971351;28;20045;-73
2022/06/08 12:20:37;;;;;;;2.08;1.80;;;;;;;;;;4966788;28;20080;-70
2022/06/08 12:23:02;;;;;;;2.08;1.73;;;;;;;;;;4958822;28;20359;-71
2022/06/08 12:25:29;;;;;;;2.88;1.90;;;;;;;;;;4970200;28;20067;-70
2022/06/08 12:28:14;;;;;;;2.20;1.95;;;;;;;;;;4972427;28;20030;-73
2022/06/08 12:30:42;;;;;;;3.28;2.00;;;;;;;;;;4972918;28;20022;-70
2022/06/08 12:33:13;;;;;;;2.33;1.92;;;;;;;;;;4973293;28;20109;-75
2022/06/08 12:35:40;;;;;;;5.05;2.17;;;;;;;;;;4973647;28;20110;-71
2022/06/08 12:38:21;;;;;;;2.67;2.28;;;;;;;;;;4972475;28;20040;-70
2022/06/08 12:41:01;;;;;;;3.60;2.53;;;;;;;;;;4973835;28;20465;-77
2022/06/08 12:43:37;;;;;;;4.07;2.97;;;;;;;;;;4972671;28;20034;-71
2022/06/08 12:46:28;;;;;;;4.05;2.40;;;;;;;;;;4972650;28;20154;-72
2022/06/08 12:48:54;;;;;;;3.22;2.47;;;;;;;;;;4963210;28;20034;-70
2022/06/08 12:51:25;;;;;;;3.45;2.88;;;;;;;;;;4973198;28;20027;-69
2022/06/08 12:53:51;;;;;;;8.27;3.10;;;;;;;;;;4971536;28;20511;-72
2022/06/08 12:56:19;;;;;;;4.32;3.22;;;;;;;;;;4971376;28;20095;-72
2022/06/08 12:58:49;;;;;;;3.33;3.00;;;;;;;;;;4962235;28;20437;-69
2022/06/08 13:01:14;;;;;;;4.25;2.60;;;;;;;;;;4961987;28;20026;-68
2022/06/08 13:03:41;;;;;;;2.60;2.40;;;;;;;;;;4959584;28;20046;-69
2022/06/08 13:06:06;;;;;;;2.88;2.67;;;;;;;;;;4959489;28;20039;-75
2022/06/08 13:08:32;;;;;;;3.30;2.97;;;;;;;;;;4958846;28;20482;-75
2022/06/08 13:11:00;;;;;;;4.10;3.30;;;;;;;;;;4961803;28;20125;-70
2022/06/08 13:13:31;;;;;;;3.33;3.03;;;;;;;;;;4957897;28;20339;-69
2022/06/08 13:15:57;;;;;;;3.95;2.63;;;;;;;;;;4951059;28;20025;-71
2022/06/08 13:18:25;;;;;;;6.47;2.80;;;;;;;;;;4954511;28;20185;-72
2022/06/08 13:20:52;;;;;;;2.92;2.63;;;;;;;;;;4944040;28;20375;-69
2022/06/08 13:23:17;;;;;;;3.28;2.40;;;;;;;;;;4954787;28;20391;-73
2022/06/08 13:25:43;;;;;;;2.53;2.22;;;;;;;;;;4947562;28;20093;-69
2022/06/08 13:28:13;;;;;;;4.20;2.20;;;;;;;;;;4955124;28;20026;-73
2022/06/08 13:30:38;;;;;;;2.60;2.20;;;;;;;;;;4957822;28;20031;-71
2022/06/08 13:33:04;;;;;;;2.92;2.65;;;;;;;;;;4951595;28;20030;-70
2022/06/08 13:35:30;;;;;;;2.78;2.58;;;;;;;;;;4945714;28;20026;-71
2022/06/08 13:37:56;;;;;;;2.67;2.47;;;;;;;;;;4945565;28;20042;-72
2022/06/08 13:40:23;;;;;;;6.35;2.97;;;;;;;;;;4948271;28;20027;-70
2022/06/08 13:42:49;;;;;;;8.93;2.95;;;;;;;;;;4947353;28;20106;-70
2022/06/08 13:45:16;;;;;;;4.10;2.88;;;;;;;;;;4951197;28;20299;-71
2022/06/08 13:47:43;;;;;;;4.43;2.78;;;;;;;;;;4947113;28;20357;-74
2022/06/08 13:50:10;;;;;;;3.60;2.65;;;;;;;;;;4947141;28;20042;-75
2022/06/08 13:52:37;;;;;;;3.47;2.33;;;;;;;;;;4944682;28;20019;-71
2022/06/08 13:55:07;;;;;;;2.80;2.60;;;;;;;;;;4944816;28;20046;-70
2022/06/08 13:57:33;;;;;;;2.80;2.40;;;;;;;;;;4957499;28;20076;-70
2022/06/08 13:59:58;;;;;;;2.60;2.35;;;;;;;;;;4964656;28;20061;-72
2022/06/08 14:02:26;;;;;;;4.45;2.25;;;;;;;;;;4963374;28;20031;-67
2022/06/08 14:04:52;;;;;;;2.47;2.28;;;;;;;;;;4961296;28;20081;-74
2022/06/08 14:13:04;;;;;;;4.60;4.00;;;;;;;;;;4963183;28;20037;-70
2022/06/08 14:15:30;;;;;;;11.35;7.32;;;;;;;;;;4965230;28;20049;-69
2022/06/08 14:17:56;;;;;;;6.03;5.15;;;;;;;;;;4963138;28;20030;-71
2022/06/08 14:20:23;;;;;;;5.85;5.25;;;;;;;;;;4968931;28;20033;-66
2022/06/08 14:22:49;;;;;;;6.15;4.63;;;;;;;;;;4965202;28;20038;-71
2022/06/08 14:25:15;;;;;;;4.15;3.30;;;;;;;;;;4955300;28;20035;-72
2022/06/08 14:27:40;;;;;;;3.38;3.08;;;;;;;;;;4971408;28;20034;-72
2022/06/08 14:30:07;;;;;;;4.03;3.00;;;;;;;;;;4979743;28;20592;-72
2022/06/08 14:32:39;;;;;;;4.53;3.47;;;;;;;;;;4976219;28;20034;-70
2022/06/08 14:35:07;;;;;;;4.50;3.55;;;;;;;;;;4978390;28;20177;-68
2022/06/08 14:37:33;;;;;;;5.07;3.75;;;;;;;;;;4978897;28;20113;-73
2022/06/08 14:39:59;;;;;;;3.63;3.33;;;;;;;;;;4976234;28;20141;-69
2022/06/08 14:42:25;;;;;;;4.20;3.50;;;;;;;;;;4979928;28;20149;-70
2022/06/08 14:44:51;;;;;;;5.95;3.70;;;;;;;;;;4971217;28;20038;-78
2022/06/08 14:47:19;;;;;;;7.78;3.85;;;;;;;;;;4974432;28;20383;-78
2022/06/08 14:49:46;;;;;;;6.32;5.10;;;;;;;;;;4978035;28;20034;-71
2022/06/08 14:52:13;;;;;;;5.97;4.93;;;;;;;;;;4978222;28;20547;-72
2022/06/08 14:54:39;;;;;;;5.93;5.13;;;;;;;;;;4979037;28;20422;-70
2022/06/08 14:57:04;;;;;;;6.90;6.20;;;;;;;;;;4978118;28;20063;-71
2022/06/08 14:59:31;;;;;;;4.65;4.25;;;;;;;;;;4978355;28;20569;-71
2022/06/08 15:01:56;;;;;;;4.93;3.60;;;;;;;;;;4977819;28;20026;-72
2022/06/08 15:04:23;;;;;;;3.92;3.05;;;;;;;;;;4978369;28;20100;-77
2022/06/08 15:06:49;;;;;;;3.58;3.28;;;;;;;;;;4979807;28;20041;-73